Time;durP1;ratioP1;P1;durP2;ratioP2;P2;SDS_P1;SDS_P2;PMS_P1;PMS_P2;Temp;Humidity;BMP_temperature;BMP_pressure;BME280_temperature;BME280_humidity;BME280_pressure;Samples;Min_cycle;Max_cycle;Signal;HPM_P1;HPM_P2
2023/08/04 06:43:16;;;;;;;4.10;3.30;;;;;;;39.59;35.28;100483.52;108884;1256;62812;-88
2023/08/04 06:46:05;;;;;;;3.70;3.30;;;;;;;39.58;35.90;100484.88;108784;1257;59148;-89
2023/08/04 06:48:53;;;;;;;4.00;3.10;;;;;;;39.95;34.85;100484.46;108842;1256;59645;-89
2023/08/04 06:51:42;;;;;;;4.40;3.50;;;;;;;39.95;34.89;100483.34;108811;1255;65803;-89
2023/08/04 06:54:30;;;;;;;5.00;3.10;;;;;;;39.78;34.99;100484.95;108822;1255;60973;-89
2023/08/04 06:57:18;;;;;;;4.90;3.30;;;;;;;39.87;34.75;100485.33;108869;1256;62469;-90
2023/08/04 07:00:09;;;;;;;4.20;3.10;;;;;;;40.18;34.01;100484.06;108870;1256;59168;-90
2023/08/04 07:02:57;;;;;;;4.10;3.00;;;;;;;40.36;33.41;100486.82;108923;1256;59138;-89
2023/08/04 07:05:45;;;;;;;4.60;3.10;;;;;;;40.33;33.51;100488.37;108855;1257;65747;-89
2023/08/04 07:08:34;;;;;;;3.90;3.20;;;;;;;40.42;34.11;100487.74;108901;1255;61986;-90
2023/08/04 07:11:22;;;;;;;3.30;3.00;;;;;;;40.50;34.61;100485.94;108864;1256;65818;-89
2023/08/04 07:14:10;;;;;;;4.40;3.00;;;;;;;40.71;32.65;100482.73;108878;1257;59639;-89
2023/08/04 07:16:59;;;;;;;4.40;3.20;;;;;;;40.86;31.16;100485.08;108879;1255;59158;-89
2023/08/04 07:19:48;;;;;;;3.30;3.00;;;;;;;40.83;31.05;100486.05;108865;1255;68327;-90
2023/08/04 07:22:37;;;;;;;5.10;3.10;;;;;;;40.91;31.47;100486.69;108813;1255;59978;-89
2023/08/04 07:25:25;;;;;;;3.00;2.60;;;;;;;40.87;31.75;100483.22;108761;1256;66303;-90
2023/08/04 07:28:14;;;;;;;3.50;3.20;;;;;;;41.03;31.17;100486.87;108881;1256;59763;-88
2023/08/04 07:31:06;;;;;;;3.10;2.80;;;;;;;41.27;31.18;100491.14;108846;1256;59201;-89
2023/08/04 07:33:55;;;;;;;3.10;2.80;;;;;;;41.37;30.89;100492.34;108863;1255;64575;-89
2023/08/04 07:36:44;;;;;;;6.60;3.20;;;;;;;41.41;30.63;100494.13;108851;1256;60829;-90
2023/08/04 07:39:32;;;;;;;6.40;3.20;;;;;;;41.55;30.65;100497.95;108778;1258;66395;-89
2023/08/04 07:42:20;;;;;;;4.00;3.10;;;;;;;41.54;31.44;100493.48;108866;1256;59084;-89
2023/08/04 07:45:09;;;;;;;4.80;2.80;;;;;;;41.39;30.77;100493.31;108866;1256;59152;-89
2023/08/04 07:47:57;;;;;;;4.90;3.20;;;;;;;41.33;30.79;100494.23;108847;1257;64635;-88
2023/08/04 07:50:46;;;;;;;3.20;2.60;;;;;;;41.34;30.41;100500.89;108840;1256;62132;-89
2023/08/04 07:53:35;;;;;;;3.40;3.00;;;;;;;41.50;30.56;100501.02;108796;1256;65276;-89
2023/08/04 07:56:23;;;;;;;3.40;3.00;;;;;;;41.62;30.41;100500.94;108868;1257;59745;-89
2023/08/04 07:59:12;;;;;;;5.40;3.60;;;;;;;41.60;29.50;100505.16;108830;1257;59273;-89
2023/08/04 08:02:00;;;;;;;5.60;3.30;;;;;;;41.20;30.18;100504.66;108778;1258;64847;-88
2023/08/04 08:04:49;;;;;;;4.00;3.10;;;;;;;40.97;30.72;100509.55;108925;1256;61271;-89
2023/08/04 08:07:37;;;;;;;4.40;2.90;;;;;;;41.04;30.64;100504.30;108894;1256;63734;-89
2023/08/04 08:10:33;;;;;;;3.70;2.90;;;;;;;41.35;30.35;100502.80;108805;1257;59539;-89
2023/08/04 08:13:21;;;;;;;4.00;2.80;;;;;;;41.17;30.23;100502.46;108937;1255;59286;-88
2023/08/04 08:16:13;;;;;;;4.00;3.10;;;;;;;41.08;30.59;100501.05;108867;1258;68347;-89
2023/08/04 08:19:07;;;;;;;3.40;3.10;;;;;;;40.99;30.98;100506.40;108802;1256;61235;-89
2023/08/04 08:21:55;;;;;;;4.10;3.00;;;;;;;41.05;30.80;100508.80;108918;1256;65056;-88
2023/08/04 08:24:44;;;;;;;5.30;3.30;;;;;;;41.05;31.19;100509.11;108782;1259;60910;-89
2023/08/04 08:27:32;;;;;;;3.00;2.70;;;;;;;41.53;30.61;100512.08;108826;1257;59436;-88
2023/08/04 08:30:20;;;;;;;5.30;3.30;;;;;;;41.77;30.36;100511.63;108811;1257;68430;-89
2023/08/04 08:33:09;;;;;;;4.80;2.80;;;;;;;41.94;29.77;100516.45;108882;1256;62162;-89
2023/08/04 08:35:58;;;;;;;3.50;3.20;;;;;;;41.97;29.64;100516.47;108659;1257;66191;-89
2023/08/04 08:38:46;;;;;;;4.40;3.20;;;;;;;42.01;29.22;100513.97;108716;1256;59562;-88
2023/08/04 08:41:35;;;;;;;5.10;3.10;;;;;;;41.78;29.51;100512.75;108902;1257;59560;-89
2023/08/04 08:44:23;;;;;;;6.00;3.20;;;;;;;41.45;29.68;100517.82;108833;1260;67714;-89
2023/08/04 08:47:11;;;;;;;4.50;3.10;;;;;;;41.64;30.80;100520.98;108751;1256;59928;-89
2023/08/04 08:50:03;;;;;;;5.80;3.10;;;;;;;41.92;30.69;100521.84;108856;1258;66424;-89
2023/08/04 08:53:00;;;;;;;3.50;3.10;;;;;;;42.20;29.93;100527.89;108684;1258;59215;-88
2023/08/04 08:55:50;;;;;;;5.00;3.10;;;;;;;42.47;29.71;100526.17;108789;1257;59206;-88
2023/08/04 08:58:38;;;;;;;5.10;3.40;;;;;;;42.52;30.58;100527.13;108727;1257;65794;-89
2023/08/04 09:01:30;;;;;;;4.90;3.60;;;;;;;42.56;30.67;100529.89;108901;1256;62334;-88
2023/08/04 09:04:18;;;;;;;3.90;3.00;;;;;;;42.72;30.37;100529.86;108787;1256;65798;-88
2023/08/04 09:07:07;;;;;;;5.30;3.80;;;;;;;42.77;29.77;100524.56;108817;1258;59381;-87
2023/08/04 09:09:55;;;;;;;5.70;3.40;;;;;;;42.91;30.77;100526.98;108835;1257;59883;-88
2023/08/04 09:12:48;;;;;;;5.20;3.50;;;;;;;43.11;30.54;100527.80;108874;1257;66583;-87
2023/08/04 09:15:58;;;;;;;4.50;3.30;;;;;;;43.10;29.21;100524.20;108826;1257;60998;-88
2023/08/04 09:18:46;;;;;;;5.30;3.30;;;;;;;42.97;29.42;100525.82;108732;1257;63821;-88
2023/08/04 09:21:35;;;;;;;3.90;3.30;;;;;;;43.02;29.40;100530.20;108820;1256;59135;-88
2023/08/04 09:24:24;;;;;;;3.80;3.20;;;;;;;43.33;29.57;100529.59;108810;1261;59066;-88
2023/08/04 09:27:26;;;;;;;3.80;3.00;;;;;;;43.26;28.65;100532.48;108751;1260;67763;-89
2023/08/04 09:30:14;;;;;;;3.80;3.10;;;;;;;43.18;28.16;100528.94;108775;1256;60931;-89
2023/08/04 09:33:03;;;;;;;3.20;2.90;;;;;;;43.25;29.45;100529.66;108765;1257;62458;-89
2023/08/04 09:36:04;;;;;;;4.10;3.10;;;;;;;43.17;29.33;100527.25;108888;1257;59633;-88
2023/08/04 09:38:52;;;;;;;4.50;3.30;;;;;;;43.12;29.57;100530.17;108813;1257;59667;-88
2023/08/04 09:41:42;;;;;;;3.30;2.90;;;;;;;43.21;28.89;100530.48;108778;1256;66247;-88
2023/08/04 09:44:34;;;;;;;4.60;3.00;;;;;;;43.36;28.11;100530.83;108824;1257;61043;-88
2023/08/04 09:47:24;;;;;;;5.20;3.20;;;;;;;43.10;27.99;100535.22;108771;1257;64625;-88
2023/08/04 09:50:13;;;;;;;3.50;2.70;;;;;;;42.87;28.28;100535.77;108816;1257;59182;-88
2023/08/04 09:53:02;;;;;;;4.30;3.20;;;;;;;43.03;28.26;100533.58;108859;1257;59709;-88
2023/08/04 09:55:51;;;;;;;4.70;3.10;;;;;;;42.92;27.74;100532.70;108825;1257;65915;-88
2023/08/04 09:58:40;;;;;;;4.60;3.20;;;;;;;42.84;27.96;100529.09;108874;1256;61050;-89
2023/08/04 10:01:28;;;;;;;4.70;2.80;;;;;;;42.93;28.21;100530.16;108825;1257;66026;-88
2023/08/04 10:04:18;;;;;;;3.50;2.80;;;;;;;43.11;28.04;100528.02;108817;1257;59577;-89
2023/08/04 10:07:09;;;;;;;4.90;3.20;;;;;;;43.31;28.50;100533.76;108747;1260;59202;-89
2023/08/04 10:10:00;;;;;;;5.30;3.30;;;;;;;43.40;29.10;100537.77;108864;1256;65811;-89
2023/08/04 10:12:49;;;;;;;3.20;2.90;;;;;;;43.27;27.80;100534.55;108886;1257;62034;-89
2023/08/04 10:16:14;;;;;;;3.50;3.00;;;;;;;43.02;27.55;100530.11;106176;1285;599700;-88
2023/08/04 10:19:06;;;;;;;4.30;3.30;;;;;;;43.12;27.26;100533.10;108272;1268;57629;-88
2023/08/04 10:21:54;;;;;;;3.90;3.00;;;;;;;43.15;28.24;100534.66;108111;1267;57079;-88
2023/08/04 10:24:42;;;;;;;5.60;3.20;;;;;;;43.38;27.97;100536.16;108112;1266;63416;-88
2023/08/04 10:27:30;;;;;;;3.70;3.00;;;;;;;43.45;27.37;100539.60;108120;1266;61907;-88
2023/08/04 10:30:18;;;;;;;3.00;2.70;;;;;;;43.53;26.96;100538.42;108204;1269;208909;-88
2023/08/04 10:33:12;;;;;;;4.20;3.00;;;;;;;43.42;26.33;100534.28;108440;1265;57856;-88
2023/08/04 10:36:08;;;;;;;3.20;2.80;;;;;;;43.33;26.51;100542.29;108259;1265;57243;-87
2023/08/04 10:38:58;;;;;;;4.70;3.00;;;;;;;43.54;26.69;100541.48;108331;1265;63175;-87
2023/08/04 10:41:46;;;;;;;5.30;3.30;;;;;;;43.74;26.53;100537.81;108203;1266;60301;-89
2023/08/04 10:44:47;;;;;;;3.30;3.00;;;;;;;43.79;25.85;100537.75;108389;1265;65409;-87
2023/08/04 10:47:53;;;;;;;3.00;2.70;;;;;;;43.60;25.65;100533.34;108390;1266;57575;-88
2023/08/04 10:50:58;;;;;;;3.10;2.80;;;;;;;43.73;25.75;100536.54;108338;1266;57955;-88
2023/08/04 10:53:46;;;;;;;4.80;3.00;;;;;;;43.92;25.82;100538.23;108360;1266;65458;-88
2023/08/04 10:56:36;;;;;;;4.90;3.60;;;;;;;44.06;27.52;100536.69;108429;1266;61089;-89
2023/08/04 10:59:24;;;;;;;3.90;3.50;;;;;;;44.14;29.64;100538.95;108468;1264;63827;-88
2023/08/04 11:02:16;;;;;;;7.20;3.70;;;;;;;44.21;29.63;100537.33;108269;1265;57844;-89
2023/08/04 11:05:09;;;;;;;6.30;3.50;;;;;;;44.43;28.96;100536.08;108495;1265;57743;-88
2023/08/04 11:07:57;;;;;;;5.30;4.00;;;;;;;44.43;27.45;100532.71;108406;1263;64310;-87
2023/08/04 11:10:52;;;;;;;5.10;3.70;;;;;;;44.52;27.11;100534.80;108214;1267;61182;-88
2023/08/04 11:13:40;;;;;;;6.60;3.40;;;;;;;44.66;26.25;100537.92;108428;1266;62825;-89
2023/08/04 11:16:32;;;;;;;4.70;3.80;;;;;;;44.68;27.61;100539.15;108261;1266;58699;-87
2023/08/04 11:19:20;;;;;;;3.80;3.40;;;;;;;44.65;26.61;100534.00;108242;1266;58668;-88
2023/08/04 11:22:09;;;;;;;4.70;3.20;;;;;;;44.40;26.23;100534.11;108331;1265;63185;-88
2023/08/04 11:24:56;;;;;;;5.20;3.10;;;;;;;44.56;25.68;100539.65;108461;1267;59081;-88
2023/08/04 11:27:45;;;;;;;3.70;3.30;;;;;;;44.66;24.28;100534.22;108356;1266;64992;-88
2023/08/04 11:30:36;;;;;;;4.80;3.40;;;;;;;44.54;24.85;100535.30;108339;1267;57618;-88
2023/08/04 11:33:24;;;;;;;3.60;3.10;;;;;;;44.47;24.99;100535.36;108554;1263;57883;-89
2023/08/04 11:36:12;;;;;;;3.30;3.00;;;;;;;44.54;25.09;100535.55;108580;1264;65294;-88
2023/08/04 11:38:59;;;;;;;3.60;3.20;;;;;;;44.91;25.36;100534.96;108500;1263;61234;-89
2023/08/04 11:41:47;;;;;;;4.70;3.50;;;;;;;45.43;24.49;100538.63;108496;1263;65084;-88
2023/08/04 11:44:35;;;;;;;3.70;3.30;;;;;;;45.74;24.41;100537.36;108529;1264;57863;-89
2023/08/04 11:47:23;;;;;;;5.00;3.20;;;;;;;45.61;25.08;100535.30;108477;1263;59296;-88
2023/08/04 11:50:10;;;;;;;4.50;3.60;;;;;;;45.60;25.67;100536.09;108396;1262;64414;-89
2023/08/04 11:52:58;;;;;;;3.80;3.10;;;;;;;45.83;24.30;100534.67;108437;1262;60882;-88
2023/08/04 11:55:55;;;;;;;4.70;3.40;;;;;;;45.87;23.63;100534.79;108523;1263;63916;-90
2023/08/04 11:58:43;;;;;;;4.00;3.20;;;;;;;45.92;24.10;100532.91;108450;1264;57528;-89
2023/08/04 12:01:34;;;;;;;3.70;3.40;;;;;;;46.21;24.44;100531.21;108516;1263;57368;-88
2023/08/04 12:04:23;;;;;;;3.80;3.40;;;;;;;46.35;24.03;100530.52;108485;1263;64362;-88
2023/08/04 12:07:12;;;;;;;5.40;3.50;;;;;;;46.06;23.43;100530.09;108492;1265;60878;-88
2023/08/04 12:10:00;;;;;;;3.90;3.50;;;;;;;46.02;23.58;100525.46;108559;1263;65120;-88
2023/08/04 12:12:47;;;;;;;3.30;3.00;;;;;;;46.18;23.49;100529.08;108450;1263;57944;-88
2023/08/04 12:15:52;;;;;;;3.30;3.00;;;;;;;46.34;23.55;100530.68;108550;1262;57929;-88
2023/08/04 12:18:40;;;;;;;3.60;3.10;;;;;;;46.27;23.40;100531.67;108554;1262;65445;-90
2023/08/04 12:21:28;;;;;;;3.20;2.90;;;;;;;46.22;23.76;100530.16;108600;1262;60511;-88
2023/08/04 12:24:16;;;;;;;4.70;3.40;;;;;;;46.13;22.55;100534.68;108540;1263;64073;-88
2023/08/04 12:27:04;;;;;;;4.90;3.10;;;;;;;45.67;23.02;100532.79;108900;1257;58138;-88
2023/08/04 12:29:52;;;;;;;4.00;3.60;;;;;;;45.48;24.79;100530.55;108977;1256;57703;-88
2023/08/04 12:32:40;;;;;;;3.90;3.20;;;;;;;45.23;26.52;100533.05;108923;1257;64493;-88
2023/08/04 12:35:28;;;;;;;5.00;3.30;;;;;;;44.86;28.44;100539.66;108884;1257;61527;-89
2023/08/04 12:38:16;;;;;;;4.80;3.70;;;;;;;44.53;30.29;100537.91;108843;1256;63920;-89
2023/08/04 12:41:04;;;;;;;4.20;3.70;;;;;;;44.11;31.40;100536.71;108917;1257;57892;-88
2023/08/04 12:43:52;;;;;;;4.30;3.90;;;;;;;43.67;31.19;100541.34;108963;1258;57390;-88
2023/08/04 12:46:40;;;;;;;4.40;3.90;;;;;;;43.16;32.17;100540.73;108842;1257;65472;-88
2023/08/04 12:49:28;;;;;;;4.30;3.90;;;;;;;42.90;33.29;100537.67;108864;1257;60041;-88
2023/08/04 12:52:26;;;;;;;4.60;3.70;;;;;;;42.75;34.73;100540.14;108841;1258;65091;-89
2023/08/04 12:55:14;;;;;;;6.40;3.50;;;;;;;43.02;35.33;100537.74;108891;1257;57924;-90
2023/08/04 12:58:01;;;;;;;6.20;4.00;;;;;;;43.15;33.97;100539.83;109222;1253;57788;-89
2023/08/04 13:00:49;;;;;;;5.70;5.00;;;;;;;42.71;34.26;100531.05;109139;1253;64126;-89
2023/08/04 13:03:37;;;;;;;5.40;4.30;;;;;;;42.85;35.52;100527.18;109187;1254;60338;-89
2023/08/04 13:06:25;;;;;;;3.50;3.20;;;;;;;43.36;34.42;100531.76;109133;1254;65064;-89
2023/08/04 13:09:12;;;;;;;6.60;3.90;;;;;;;43.75;33.82;100537.60;109167;1254;58048;-89
2023/08/04 13:12:00;;;;;;;4.30;3.80;;;;;;;44.11;32.85;100537.02;109249;1253;57937;-90
2023/08/04 13:14:48;;;;;;;4.50;3.50;;;;;;;44.51;33.40;100536.42;109153;1254;64122;-90
2023/08/04 13:17:36;;;;;;;4.20;3.60;;;;;;;44.72;32.88;100541.69;109189;1254;60983;-89
2023/08/04 13:20:23;;;;;;;4.20;3.40;;;;;;;44.70;33.04;100540.09;109165;1254;62620;-89
2023/08/04 13:23:11;;;;;;;4.80;3.50;;;;;;;44.66;32.94;100541.44;109178;1253;57563;-90
2023/08/04 13:26:06;;;;;;;4.90;3.30;;;;;;;44.89;32.28;100539.95;108923;1254;57575;-90
2023/08/04 13:28:54;;;;;;;3.80;3.10;;;;;;;44.92;32.51;100542.27;109195;1253;64276;-90
2023/08/04 13:31:42;;;;;;;5.40;3.80;;;;;;;44.86;32.31;100539.20;109164;1253;58998;-89
2023/08/04 13:34:30;;;;;;;3.80;3.20;;;;;;;44.89;32.08;100539.27;108897;1254;64150;-89
2023/08/04 13:37:18;;;;;;;3.50;3.20;;;;;;;44.82;32.22;100539.97;109102;1255;57541;-90
2023/08/04 13:40:06;;;;;;;3.50;3.20;;;;;;;44.82;31.45;100542.70;109147;1254;57620;-89
2023/08/04 13:42:54;;;;;;;7.00;3.60;;;;;;;44.77;31.69;100543.08;109117;1253;64457;-89
2023/08/04 13:45:42;;;;;;;5.00;3.30;;;;;;;45.04;31.52;100538.33;109191;1254;60109;-90
2023/08/04 13:48:32;;;;;;;6.10;3.40;;;;;;;45.24;30.97;100535.22;109186;1254;65135;-89
2023/08/04 13:51:20;;;;;;;6.40;3.10;;;;;;;45.50;30.71;100536.16;109200;1253;58283;-89
2023/08/04 13:54:15;;;;;;;4.60;3.20;;;;;;;45.79;30.41;100534.73;109072;1253;57584;-88
2023/08/04 13:57:03;;;;;;;5.50;3.20;;;;;;;45.90;30.12;100535.27;109035;1254;64242;-89
2023/08/04 13:59:51;;;;;;;7.20;3.40;;;;;;;45.73;30.42;100539.56;109187;1253;60835;-90
2023/08/04 14:02:39;;;;;;;5.10;3.10;;;;;;;45.57;30.59;100539.11;109166;1253;64903;-89
2023/08/04 14:05:28;;;;;;;6.80;3.50;;;;;;;45.68;30.53;100537.04;109181;1253;57777;-89
2023/08/04 14:08:15;;;;;;;7.20;3.30;;;;;;;45.78;30.31;100538.52;109199;1254;57567;-89
2023/08/04 14:11:03;;;;;;;5.40;3.10;;;;;;;45.62;30.56;100541.45;109126;1253;65449;-91
2023/08/04 14:13:51;;;;;;;3.70;3.00;;;;;;;45.66;30.30;100538.78;109168;1253;59892;-89
2023/08/04 14:16:39;;;;;;;4.70;3.10;;;;;;;45.76;30.23;100535.63;109236;1254;63906;-90
2023/08/04 14:19:27;;;;;;;3.60;3.20;;;;;;;45.63;30.46;100534.10;109061;1254;58106;-89
2023/08/04 14:22:15;;;;;;;8.40;4.30;;;;;;;45.53;30.30;100531.71;109070;1253;57376;-90
2023/08/04 14:25:04;;;;;;;4.90;3.10;;;;;;;45.92;30.33;100526.83;109091;1253;65333;-90
2023/08/04 14:27:52;;;;;;;5.10;3.20;;;;;;;46.18;30.12;100529.39;108883;1253;59977;-90
2023/08/04 14:30:40;;;;;;;17.50;10.70;;;;;;;46.33;29.69;100529.27;109057;1254;64031;-91
2023/08/04 14:33:28;;;;;;;4.40;3.20;;;;;;;46.25;29.48;100531.52;109112;1254;59443;-91
2023/08/04 14:36:15;;;;;;;4.20;3.10;;;;;;;45.97;29.48;100526.83;109119;1253;58784;-91
2023/08/04 14:39:03;;;;;;;6.50;3.30;;;;;;;45.52;29.57;100526.52;109100;1254;64241;-90
2023/08/04 14:41:51;;;;;;;7.60;6.10;;;;;;;45.05;30.50;100525.59;109152;1254;61171;-90
2023/08/04 14:44:39;;;;;;;7.40;4.30;;;;;;;44.56;31.35;100529.20;109079;1253;64563;-89
2023/08/04 14:47:26;;;;;;;3.90;3.50;;;;;;;44.25;32.03;100527.94;109083;1254;57824;-90
2023/08/04 14:50:14;;;;;;;6.40;3.60;;;;;;;43.78;32.90;100529.42;109194;1253;57513;-91
2023/08/04 14:53:02;;;;;;;5.10;3.30;;;;;;;43.16;33.93;100529.90;109202;1254;65530;-90
2023/08/04 14:55:50;;;;;;;5.20;3.50;;;;;;;42.93;34.73;100526.98;109209;1253;61138;-90
2023/08/04 14:58:38;;;;;;;6.70;3.40;;;;;;;42.79;35.09;100526.82;109125;1254;62820;-90
2023/08/04 15:01:26;;;;;;;6.30;3.40;;;;;;;42.31;36.43;100522.31;109014;1253;58314;-90
2023/08/04 15:04:14;;;;;;;7.30;3.70;;;;;;;42.05;37.55;100520.30;109216;1253;58386;-90
2023/08/04 15:07:04;;;;;;;5.00;3.40;;;;;;;42.00;38.10;100521.06;109152;1254;66346;-90
2023/08/04 15:09:52;;;;;;;4.80;3.30;;;;;;;41.73;38.47;100525.84;109120;1253;61075;-90
2023/08/04 15:12:40;;;;;;;4.00;3.60;;;;;;;41.21;39.70;100524.45;109096;1254;65041;-91
2023/08/04 15:15:28;;;;;;;5.50;4.00;;;;;;;41.18;40.32;100525.27;109000;1254;58266;-90
2023/08/04 15:18:16;;;;;;;6.10;3.60;;;;;;;40.97;40.96;100528.05;109131;1253;58766;-90
2023/08/04 15:21:04;;;;;;;4.70;3.50;;;;;;;41.10;41.05;100524.31;109169;1253;65015;-89
2023/08/04 15:23:52;;;;;;;5.10;3.50;;;;;;;41.02;40.34;100527.13;109178;1253;60990;-90
2023/08/04 15:26:40;;;;;;;4.90;3.90;;;;;;;40.83;40.84;100529.17;109048;1253;64185;-90
2023/08/04 15:29:28;;;;;;;5.30;3.70;;;;;;;40.42;42.28;100525.84;109210;1253;58454;-90
2023/08/04 15:32:17;;;;;;;5.60;3.60;;;;;;;40.21;43.57;100525.13;109180;1254;58294;-89
2023/08/04 15:35:04;;;;;;;4.50;3.50;;;;;;;40.34;43.96;100526.16;109200;1252;63756;-91
2023/08/04 15:37:52;;;;;;;4.80;3.80;;;;;;;40.49;43.02;100527.84;109043;1254;60196;-91
2023/08/04 15:40:41;;;;;;;7.90;4.90;;;;;;;40.28;43.53;100531.33;109163;1254;64044;-92
2023/08/04 15:43:29;;;;;;;24.90;12.80;;;;;;;40.29;43.79;100532.04;108935;1253;58425;-90
2023/08/04 15:46:16;;;;;;;33.40;21.70;;;;;;;40.43;43.42;100532.63;109089;1252;58517;-91
2023/08/04 15:49:04;;;;;;;5.10;4.50;;;;;;;40.58;44.18;100535.36;109060;1254;66334;-90
2023/08/04 15:51:52;;;;;;;5.30;4.10;;;;;;;40.58;44.40;100540.48;108904;1253;59763;-90
2023/08/04 15:54:40;;;;;;;5.60;3.70;;;;;;;40.50;44.38;100537.21;108986;1253;63880;-90
2023/08/04 15:57:43;;;;;;;5.90;3.70;;;;;;;40.30;45.10;100535.24;108972;1253;58768;-90
2023/08/04 16:00:32;;;;;;;9.00;4.10;;;;;;;40.09;46.86;100541.55;109232;1253;59025;-91
2023/08/04 16:03:20;;;;;;;6.70;4.50;;;;;;;39.79;48.10;100534.09;109066;1253;64980;-91
